DKH3628 ZGZH-ZJYX
Flight info
| Callsign | DKH3628 |
|---|---|
| Flight time | N/A |
| Altitude | 29100 |
| Route | LBN W159 BHY R339 LH W71 AGTEL X165 WCF X163 DBA |
| Aircraft | A321/M-SDE3FGHIRWY/LB1 |
Departure
| Time | 2026-05-04 09:42 |
|---|---|
| Airport | Liuzhou Bailian Airport / Bailian Air Base (ZGZH) |
Arrival
| Time | N/A |
|---|---|
| Airport | ZJYX |
| Time | Latitude | Longitude | Altitude | Speed | Heading |
|---|---|---|---|---|---|
| 2026-05-04 09:20 | 24.20256 | 109.39902 | 317 ft | 0 kts | 65° |
| 2026-05-04 09:26 | 24.20255 | 109.39902 | 315 ft | 2 kts | 65° |
| 2026-05-04 09:26 | 24.20248 | 109.39885 | 318 ft | 2 kts | 62° |
| 2026-05-04 09:27 | 24.20241 | 109.39869 | 318 ft | 2 kts | 56° |
| 2026-05-04 09:27 | 24.20232 | 109.39853 | 318 ft | 2 kts | 48° |
| 2026-05-04 09:27 | 24.20222 | 109.39839 | 317 ft | 2 kts | 34° |
| 2026-05-04 09:27 | 24.20208 | 109.39833 | 319 ft | 2 kts | 348° |
| 2026-05-04 09:28 | 24.20201 | 109.39833 | 315 ft | 0 kts | 320° |
| 2026-05-04 09:31 | 24.20202 | 109.39833 | 315 ft | 0 kts | 333° |
| 2026-05-04 09:31 | 24.20213 | 109.39829 | 317 ft | 5 kts | 338° |
| 2026-05-04 09:31 | 24.20270 | 109.39800 | 317 ft | 13 kts | 334° |
| 2026-05-04 09:31 | 24.20369 | 109.39748 | 317 ft | 19 kts | 334° |
| 2026-05-04 09:32 | 24.20418 | 109.39661 | 317 ft | 12 kts | 246° |
| 2026-05-04 09:32 | 24.20386 | 109.39573 | 318 ft | 12 kts | 269° |
| 2026-05-04 09:34 | 24.20540 | 109.39395 | 315 ft | 0 kts | 242° |
| 2026-05-04 09:37 | 24.20636 | 109.39217 | 319 ft | 11 kts | 335° |
| 2026-05-04 09:37 | 24.20707 | 109.39181 | 320 ft | 12 kts | 335° |
| 2026-05-04 09:38 | 24.20785 | 109.39141 | 320 ft | 13 kts | 335° |
| 2026-05-04 09:38 | 24.20890 | 109.39088 | 320 ft | 19 kts | 334° |
| 2026-05-04 09:38 | 24.21008 | 109.39028 | 321 ft | 18 kts | 335° |
| 2026-05-04 09:38 | 24.21125 | 109.38969 | 319 ft | 19 kts | 335° |
| 2026-05-04 09:39 | 24.21250 | 109.38906 | 318 ft | 20 kts | 335° |
| 2026-05-04 09:39 | 24.21375 | 109.38844 | 317 ft | 20 kts | 336° |
| 2026-05-04 09:39 | 24.21504 | 109.38779 | 314 ft | 21 kts | 334° |
| 2026-05-04 09:39 | 24.21630 | 109.38713 | 314 ft | 20 kts | 335° |
| 2026-05-04 09:40 | 24.21756 | 109.38661 | 312 ft | 18 kts | 352° |
| 2026-05-04 09:40 | 24.21786 | 109.38629 | 313 ft | 2 kts | 219° |
| 2026-05-04 09:40 | 24.21772 | 109.38630 | 312 ft | 2 kts | 171° |
| 2026-05-04 09:40 | 24.21746 | 109.38652 | 313 ft | 7 kts | 147° |
| 2026-05-04 09:41 | 24.21730 | 109.38662 | 313 ft | 3 kts | 153° |
| 2026-05-04 09:42 | 24.15692 | 109.41634 | 2143 ft | 203 kts | 180° |
| 2026-05-04 09:43 | 24.14334 | 109.41062 | 2320 ft | 218 kts | 216° |
| 2026-05-04 09:43 | 24.13176 | 109.39986 | 2712 ft | 219 kts | 225° |
| 2026-05-04 09:43 | 24.12064 | 109.38831 | 3085 ft | 222 kts | 223° |
| 2026-05-04 09:43 | 24.10914 | 109.37705 | 3479 ft | 223 kts | 222° |
| 2026-05-04 09:44 | 24.09749 | 109.36571 | 3858 ft | 225 kts | 221° |
| 2026-05-04 09:44 | 24.08562 | 109.35449 | 4358 ft | 227 kts | 220° |
| 2026-05-04 09:44 | 24.07349 | 109.34339 | 4871 ft | 227 kts | 220° |
| 2026-05-04 09:46 | 23.98557 | 109.26949 | 8203 ft | 232 kts | 210° |
| 2026-05-04 09:46 | 23.97060 | 109.26114 | 8326 ft | 253 kts | 209° |
| 2026-05-04 09:46 | 23.95409 | 109.25195 | 8558 ft | 274 kts | 209° |
| 2026-05-04 09:47 | 23.93684 | 109.24240 | 9165 ft | 281 kts | 210° |
| 2026-05-04 09:47 | 23.91932 | 109.23273 | 9894 ft | 283 kts | 210° |
| 2026-05-04 09:49 | 23.76954 | 109.15249 | 11594 ft | 391 kts | 198° |
| 2026-05-04 09:49 | 23.74222 | 109.14948 | 12093 ft | 402 kts | 180° |
| 2026-05-04 09:49 | 23.71463 | 109.15271 | 12601 ft | 407 kts | 177° |
| 2026-05-04 09:51 | 23.54222 | 109.17590 | 15261 ft | 426 kts | 178° |
| 2026-05-04 09:51 | 23.51238 | 109.17986 | 15676 ft | 428 kts | 178° |
| 2026-05-04 09:51 | 23.48272 | 109.18379 | 16077 ft | 431 kts | 178° |
| 2026-05-04 09:51 | 23.45322 | 109.18770 | 16473 ft | 434 kts | 178° |
| 2026-05-04 09:52 | 23.42316 | 109.19164 | 16848 ft | 437 kts | 178° |
| 2026-05-04 09:52 | 23.39289 | 109.19558 | 17240 ft | 439 kts | 178° |
| 2026-05-04 09:52 | 23.36207 | 109.19961 | 17652 ft | 441 kts | 178° |
| 2026-05-04 09:52 | 23.33192 | 109.20355 | 18032 ft | 444 kts | 178° |
| 2026-05-04 09:53 | 23.30077 | 109.20764 | 18399 ft | 446 kts | 178° |
| 2026-05-04 09:53 | 23.26989 | 109.21173 | 18734 ft | 448 kts | 178° |
| 2026-05-04 09:53 | 23.23923 | 109.21579 | 19064 ft | 450 kts | 178° |
| 2026-05-04 09:53 | 23.20805 | 109.21992 | 19392 ft | 452 kts | 178° |
| 2026-05-04 09:54 | 23.17633 | 109.22410 | 19727 ft | 454 kts | 178° |
| 2026-05-04 09:54 | 23.14490 | 109.22823 | 20030 ft | 457 kts | 178° |
| 2026-05-04 09:54 | 23.11364 | 109.23232 | 20371 ft | 458 kts | 178° |
| 2026-05-04 09:54 | 23.08154 | 109.23652 | 20704 ft | 460 kts | 178° |
| 2026-05-04 09:55 | 23.04968 | 109.24068 | 21017 ft | 462 kts | 178° |
| 2026-05-04 09:55 | 23.01773 | 109.24486 | 21332 ft | 464 kts | 178° |
| 2026-05-04 09:55 | 22.98551 | 109.24908 | 21645 ft | 466 kts | 178° |
| 2026-05-04 09:55 | 22.95321 | 109.25334 | 21959 ft | 468 kts | 178° |
| 2026-05-04 09:56 | 22.92084 | 109.25760 | 22259 ft | 470 kts | 178° |
| 2026-05-04 09:56 | 22.88830 | 109.26187 | 22555 ft | 472 kts | 178° |
| 2026-05-04 09:56 | 22.85562 | 109.26615 | 22840 ft | 474 kts | 178° |
| 2026-05-04 09:56 | 22.82277 | 109.27045 | 23119 ft | 476 kts | 178° |
| 2026-05-04 09:57 | 22.78985 | 109.27476 | 23395 ft | 478 kts | 178° |
| 2026-05-04 09:57 | 22.75676 | 109.27905 | 23659 ft | 479 kts | 178° |
| 2026-05-04 09:57 | 22.72365 | 109.28332 | 23893 ft | 481 kts | 178° |
| 2026-05-04 09:57 | 22.69037 | 109.28765 | 24136 ft | 482 kts | 178° |
| 2026-05-04 09:58 | 22.65700 | 109.29202 | 24381 ft | 484 kts | 178° |
| 2026-05-04 09:58 | 22.62350 | 109.29645 | 24627 ft | 485 kts | 178° |
| 2026-05-04 09:58 | 22.58992 | 109.30094 | 24855 ft | 487 kts | 178° |
| 2026-05-04 10:00 | 22.35490 | 109.33200 | 26870 ft | 483 kts | 179° |
| 2026-05-04 10:00 | 22.32159 | 109.33638 | 27173 ft | 482 kts | 179° |
| 2026-05-04 10:02 | 22.14988 | 109.35878 | 28769 ft | 478 kts | 179° |
| 2026-05-04 10:04 | 21.93377 | 109.38669 | 29111 ft | 474 kts | 179° |
| 2026-05-04 10:04 | 21.86805 | 109.39517 | 29116 ft | 474 kts | 179° |
| 2026-05-04 10:05 | 21.80265 | 109.40374 | 29106 ft | 474 kts | 179° |
| 2026-05-04 10:05 | 21.73761 | 109.41216 | 29106 ft | 474 kts | 179° |
| 2026-05-04 10:06 | 21.67212 | 109.42073 | 29108 ft | 475 kts | 176° |
| 2026-05-04 10:06 | 21.60946 | 109.44428 | 29103 ft | 493 kts | 154° |
| 2026-05-04 10:08 | 21.48897 | 109.62807 | 29101 ft | 513 kts | 121° |
| 2026-05-04 10:08 | 21.47207 | 109.66189 | 29097 ft | 513 kts | 122° |
| 2026-05-04 10:08 | 21.43831 | 109.72939 | 29097 ft | 513 kts | 122° |
| 2026-05-04 10:09 | 21.40462 | 109.79681 | 29100 ft | 513 kts | 121° |
| 2026-05-04 10:09 | 21.37093 | 109.86422 | 29109 ft | 512 kts | 122° |
| 2026-05-04 10:10 | 21.33722 | 109.93149 | 29101 ft | 512 kts | 122° |
| 2026-05-04 10:10 | 21.30348 | 109.99875 | 29103 ft | 511 kts | 122° |
| 2026-05-04 10:11 | 21.26975 | 110.06576 | 29105 ft | 511 kts | 122° |
| 2026-05-04 10:11 | 21.23599 | 110.13294 | 29122 ft | 510 kts | 122° |
| 2026-05-04 10:12 | 21.20352 | 110.19742 | 29108 ft | 509 kts | 122° |
| 2026-05-04 10:12 | 21.16502 | 110.26247 | 29111 ft | 500 kts | 136° |
| 2026-05-04 10:13 | 21.13964 | 110.28757 | 29110 ft | 492 kts | 148° |
| 2026-05-04 10:13 | 21.11098 | 110.30678 | 29105 ft | 484 kts | 159° |
| 2026-05-04 10:13 | 21.04759 | 110.32651 | 29094 ft | 469 kts | 179° |
| 2026-05-04 10:14 | 20.98302 | 110.32502 | 29094 ft | 463 kts | 188° |
| 2026-05-04 10:16 | 20.72546 | 110.30811 | 29097 ft | 465 kts | 188° |
| 2026-05-04 10:16 | 20.67142 | 110.30455 | 29087 ft | 465 kts | 188° |
| 2026-05-04 10:17 | 20.60682 | 110.30028 | 29103 ft | 465 kts | 188° |
| 2026-05-04 10:19 | 20.39316 | 110.37548 | 29094 ft | 492 kts | 148° |
| 2026-05-04 10:19 | 20.36538 | 110.39676 | 29095 ft | 492 kts | 148° |
| 2026-05-04 10:19 | 20.30999 | 110.43901 | 29090 ft | 492 kts | 148° |
| 2026-05-04 10:20 | 20.25632 | 110.47994 | 29086 ft | 492 kts | 148° |
| 2026-05-04 10:20 | 20.20055 | 110.52253 | 29083 ft | 493 kts | 148° |
| 2026-05-04 10:21 | 20.14488 | 110.56511 | 29082 ft | 493 kts | 148° |
| 2026-05-04 10:21 | 20.08911 | 110.60770 | 29082 ft | 493 kts | 148° |
| 2026-05-04 10:22 | 20.00539 | 110.67149 | 29084 ft | 493 kts | 148° |
| 2026-05-04 10:23 | 19.94956 | 110.71396 | 29094 ft | 493 kts | 148° |
| 2026-05-04 10:25 | 19.70506 | 110.71442 | 29080 ft | 459 kts | 208° |
| 2026-05-04 10:25 | 19.64731 | 110.68528 | 29074 ft | 460 kts | 208° |
| 2026-05-04 10:26 | 19.58939 | 110.65623 | 29067 ft | 461 kts | 208° |
| 2026-05-04 10:26 | 19.53127 | 110.62704 | 29066 ft | 462 kts | 208° |
| 2026-05-04 10:27 | 19.47312 | 110.59779 | 29067 ft | 463 kts | 208° |
| 2026-05-04 10:27 | 19.41522 | 110.56875 | 29069 ft | 464 kts | 208° |
| 2026-05-04 10:28 | 19.35684 | 110.53948 | 29072 ft | 464 kts | 208° |
| 2026-05-04 10:28 | 19.29838 | 110.51020 | 29079 ft | 464 kts | 208° |
| 2026-05-04 10:29 | 19.23990 | 110.48115 | 29080 ft | 465 kts | 205° |
| 2026-05-04 10:29 | 19.20869 | 110.47139 | 29077 ft | 470 kts | 193° |
| 2026-05-04 10:29 | 19.17590 | 110.46886 | 29077 ft | 476 kts | 180° |
| 2026-05-04 10:29 | 19.14310 | 110.47393 | 29077 ft | 482 kts | 168° |
| 2026-05-04 10:30 | 19.11159 | 110.48683 | 29071 ft | 488 kts | 155° |
| 2026-05-04 10:30 | 19.08416 | 110.50610 | 29068 ft | 492 kts | 144° |
| 2026-05-04 10:30 | 19.05758 | 110.52858 | 29061 ft | 493 kts | 144° |
| 2026-05-04 10:31 | 19.00364 | 110.57331 | 29063 ft | 493 kts | 145° |
| 2026-05-04 10:32 | 18.81460 | 110.72914 | 29076 ft | 492 kts | 145° |
| 2026-05-04 10:33 | 18.76103 | 110.77356 | 29074 ft | 492 kts | 145° |
| 2026-05-04 10:33 | 18.70728 | 110.81794 | 29076 ft | 491 kts | 145° |
| 2026-05-04 10:34 | 18.65304 | 110.86264 | 29076 ft | 491 kts | 145° |
| 2026-05-04 10:34 | 18.59959 | 110.90662 | 29076 ft | 491 kts | 145° |
| 2026-05-04 10:35 | 18.54535 | 110.95131 | 29066 ft | 490 kts | 145° |
| 2026-05-04 10:35 | 18.49161 | 110.99556 | 29062 ft | 490 kts | 145° |
| 2026-05-04 10:36 | 18.43786 | 111.03978 | 28961 ft | 491 kts | 145° |
| 2026-05-04 10:36 | 18.41129 | 111.06154 | 28704 ft | 490 kts | 145° |
| 2026-05-04 10:36 | 18.38406 | 111.08389 | 28443 ft | 491 kts | 145° |
| 2026-05-04 10:37 | 18.35745 | 111.10576 | 28187 ft | 491 kts | 145° |
| 2026-05-04 10:37 | 18.33050 | 111.12790 | 27943 ft | 492 kts | 145° |
| 2026-05-04 10:37 | 18.30351 | 111.15005 | 27693 ft | 492 kts | 145° |
| 2026-05-04 10:37 | 18.27655 | 111.17217 | 27448 ft | 492 kts | 145° |
| 2026-05-04 10:39 | 18.11407 | 111.30515 | 26564 ft | 494 kts | 145° |
| 2026-05-04 10:39 | 18.08693 | 111.32736 | 26568 ft | 494 kts | 145° |
| 2026-05-04 10:39 | 18.05985 | 111.34950 | 26566 ft | 494 kts | 145° |
| 2026-05-04 10:40 | 18.03268 | 111.37170 | 26563 ft | 494 kts | 145° |
| 2026-05-04 10:40 | 18.00551 | 111.39390 | 26343 ft | 494 kts | 145° |
| 2026-05-04 10:40 | 17.97840 | 111.41601 | 26105 ft | 494 kts | 145° |
| 2026-05-04 10:40 | 17.95132 | 111.43810 | 25870 ft | 494 kts | 145° |
| 2026-05-04 10:41 | 17.92416 | 111.46023 | 25646 ft | 494 kts | 145° |
| 2026-05-04 10:41 | 17.89690 | 111.48242 | 25424 ft | 494 kts | 144° |
| 2026-05-04 10:41 | 17.86974 | 111.50455 | 25189 ft | 495 kts | 144° |
| 2026-05-04 10:41 | 17.84258 | 111.52672 | 24961 ft | 495 kts | 144° |
| 2026-05-04 10:42 | 17.81542 | 111.54888 | 24738 ft | 495 kts | 144° |
| 2026-05-04 10:42 | 17.78818 | 111.57105 | 24456 ft | 495 kts | 144° |
| 2026-05-04 10:42 | 17.76102 | 111.59314 | 23513 ft | 497 kts | 144° |
| 2026-05-04 10:42 | 17.73383 | 111.61526 | 22904 ft | 490 kts | 144° |
| 2026-05-04 10:43 | 17.70698 | 111.63708 | 22664 ft | 488 kts | 144° |
| 2026-05-04 10:44 | 17.52593 | 111.78407 | 18470 ft | 458 kts | 144° |
| 2026-05-04 10:45 | 17.50084 | 111.80438 | 17889 ft | 454 kts | 144° |
| 2026-05-04 10:45 | 17.47594 | 111.82453 | 17278 ft | 449 kts | 144° |
| 2026-05-04 10:45 | 17.45138 | 111.84440 | 16687 ft | 444 kts | 143° |
| 2026-05-04 10:45 | 17.42706 | 111.86411 | 16106 ft | 440 kts | 143° |
| 2026-05-04 10:46 | 17.40299 | 111.88364 | 15534 ft | 435 kts | 143° |
| 2026-05-04 10:46 | 17.37921 | 111.90291 | 14973 ft | 431 kts | 143° |
| 2026-05-04 10:46 | 17.35582 | 111.92181 | 14426 ft | 427 kts | 143° |
| 2026-05-04 10:46 | 17.33250 | 111.94065 | 13960 ft | 419 kts | 143° |
| 2026-05-04 10:47 | 17.30997 | 111.95885 | 13837 ft | 401 kts | 143° |
| 2026-05-04 10:47 | 17.28825 | 111.97644 | 13716 ft | 376 kts | 143° |
| 2026-05-04 10:47 | 17.26823 | 111.99265 | 13586 ft | 352 kts | 143° |
| 2026-05-04 10:47 | 17.24967 | 112.00767 | 13461 ft | 331 kts | 143° |
| 2026-05-04 10:49 | 17.12966 | 112.10445 | 10914 ft | 304 kts | 143° |
| 2026-05-04 10:49 | 17.11293 | 112.11788 | 10540 ft | 303 kts | 143° |
| 2026-05-04 10:50 | 17.09627 | 112.13126 | 10185 ft | 301 kts | 142° |
| 2026-05-04 10:51 | 16.97937 | 112.21382 | 6746 ft | 283 kts | 174° |
| 2026-05-04 10:52 | 16.95972 | 112.21270 | 6154 ft | 286 kts | 193° |
| 2026-05-04 10:52 | 16.94113 | 112.20600 | 5979 ft | 279 kts | 200° |
| 2026-05-04 10:52 | 16.92309 | 112.19889 | 5929 ft | 277 kts | 200° |
| 2026-05-04 10:54 | 16.79476 | 112.14869 | 3356 ft | 293 kts | 200° |
| 2026-05-04 10:54 | 16.77609 | 112.14168 | 3146 ft | 273 kts | 193° |
| 2026-05-04 10:56 | 16.70498 | 112.20852 | 2054 ft | 191 kts | 70° |
| 2026-05-04 10:56 | 16.71251 | 112.21939 | 2047 ft | 186 kts | 45° |
| 2026-05-04 10:56 | 16.72179 | 112.22895 | 2048 ft | 188 kts | 46° |
| 2026-05-04 10:57 | 16.73103 | 112.23853 | 2045 ft | 188 kts | 46° |
| 2026-05-04 10:57 | 16.74013 | 112.24796 | 2040 ft | 182 kts | 46° |
| 2026-05-04 10:57 | 16.74878 | 112.25689 | 2041 ft | 172 kts | 46° |
| 2026-05-04 10:57 | 16.75729 | 112.26572 | 2034 ft | 168 kts | 46° |
| 2026-05-04 10:58 | 16.76540 | 112.27415 | 1775 ft | 157 kts | 46° |
| 2026-05-04 10:58 | 16.77294 | 112.28195 | 1531 ft | 149 kts | 46° |
| 2026-05-04 10:58 | 16.78008 | 112.28935 | 1344 ft | 146 kts | 46° |
| 2026-05-04 10:58 | 16.78720 | 112.29677 | 1144 ft | 144 kts | 46° |
| 2026-05-04 10:59 | 16.79429 | 112.30414 | 952 ft | 143 kts | 46° |
| 2026-05-04 10:59 | 16.80135 | 112.31148 | 757 ft | 142 kts | 45° |
| 2026-05-04 10:59 | 16.80831 | 112.31873 | 570 ft | 141 kts | 45° |
| 2026-05-04 10:59 | 16.81523 | 112.32588 | 374 ft | 138 kts | 46° |
| 2026-05-04 11:00 | 16.82192 | 112.33286 | 171 ft | 135 kts | 46° |
| 2026-05-04 11:01 | 16.83571 | 112.34726 | 34 ft | 26 kts | 224° |
| 2026-05-04 11:02 | 16.83415 | 112.34559 | 34 ft | 37 kts | 224° |
| 2026-05-04 11:02 | 16.83308 | 112.34459 | 31 ft | 17 kts | 240° |